createdAt,value
2018-09-11T00:01:13.545Z,67.00
2018-09-11T00:08:58.660Z,67.10
2018-09-11T00:11:33.785Z,67.00
2018-09-11T00:14:09.198Z,67.00
2018-09-11T00:16:44.212Z,66.90
2018-09-11T00:42:33.838Z,67.20
2018-09-11T00:47:43.863Z,67.20
2018-09-11T00:55:28.536Z,67.40
2018-09-11T01:08:23.407Z,67.30
2018-09-11T01:13:33.300Z,67.30
2018-09-11T01:16:09.413Z,67.40
2018-09-11T01:18:44.495Z,67.30
2018-09-11T01:21:19.664Z,67.30
2018-09-11T01:23:54.769Z,67.40
2018-09-11T01:29:04.649Z,67.30
2018-09-11T01:34:14.547Z,67.40
2018-09-11T01:39:24.493Z,67.30
2018-09-11T01:41:59.556Z,67.40
2018-09-11T01:44:34.639Z,67.50
2018-09-11T01:47:09.823Z,67.30
2018-09-11T01:49:44.998Z,67.60
2018-09-11T01:52:20.041Z,67.40
2018-09-11T01:54:55.211Z,67.40
2018-09-11T01:57:30.238Z,67.30
2018-09-11T02:00:05.306Z,67.30
2018-09-11T02:02:40.391Z,67.10
2018-09-11T02:07:50.516Z,67.20
2018-09-11T02:15:35.138Z,67.40
2018-09-11T02:18:10.319Z,67.10
2018-09-11T02:20:45.380Z,67.30
2018-09-11T02:23:20.511Z,67.30
2018-09-11T02:25:55.607Z,67.50
2018-09-11T02:31:05.529Z,67.40
2018-09-11T02:36:15.680Z,67.30
2018-09-11T02:46:37.020Z,67.20
2018-09-11T02:49:12.077Z,67.20
2018-09-11T02:51:47.155Z,67.40
2018-09-11T02:54:22.261Z,67.20
2018-09-11T02:56:57.332Z,67.30
2018-09-11T02:59:32.422Z,67.20
2018-09-11T03:02:07.539Z,67.20
2018-09-11T03:07:17.404Z,67.40
2018-09-11T03:12:27.584Z,67.20
2018-09-11T03:20:13.858Z,67.20
2018-09-11T03:28:01.097Z,67.30
2018-09-11T03:30:36.162Z,67.30
2018-09-11T03:35:46.365Z,67.30
2018-09-11T03:38:21.408Z,67.40
2018-09-11T03:43:31.300Z,67.30
2018-09-11T03:46:06.404Z,67.30
2018-09-11T03:51:16.230Z,67.20
2018-09-11T03:53:51.305Z,67.30
2018-09-11T03:59:01.239Z,67.30
2018-09-11T04:01:36.325Z,67.40
2018-09-11T04:04:11.428Z,67.30
2018-09-11T04:06:46.569Z,67.40
2018-09-11T04:09:21.744Z,67.50
2018-09-11T04:11:56.856Z,67.40
2018-09-11T04:14:31.904Z,67.40
2018-09-11T04:19:41.828Z,67.30
2018-09-11T04:24:51.649Z,67.40
2018-09-11T04:30:01.553Z,67.60
2018-09-11T04:35:11.856Z,67.40
2018-09-11T04:40:22.141Z,67.40
2018-09-11T04:45:32.469Z,67.40
2018-09-11T04:53:17.141Z,67.50
2018-09-11T04:58:26.964Z,67.50
2018-09-11T05:06:11.493Z,67.50
2018-09-11T05:08:46.881Z,67.50
2018-09-11T05:11:21.918Z,67.60
2018-09-11T05:16:32.108Z,67.50
2018-09-11T05:24:16.953Z,67.60
2018-09-11T05:29:26.766Z,67.60
2018-09-11T05:32:01.829Z,67.70
2018-09-11T05:37:12.243Z,67.60
2018-09-11T05:39:47.315Z,67.50
2018-09-11T05:47:32.117Z,67.60
2018-09-11T05:52:42.184Z,67.60
2018-09-11T05:55:17.237Z,67.70
2018-09-11T05:57:52.628Z,67.50
2018-09-11T06:03:02.629Z,67.70
2018-09-11T06:05:37.723Z,67.70
2018-09-11T06:08:13.080Z,67.70
2018-09-11T06:15:57.978Z,67.50
2018-09-11T06:21:07.870Z,67.60
2018-09-11T06:28:52.808Z,67.60
2018-09-11T06:31:27.840Z,67.60
2018-09-11T06:39:13.473Z,67.70
2018-09-11T06:49:32.866Z,67.60
2018-09-11T06:54:43.111Z,67.60
2018-09-11T06:59:53.556Z,67.70
2018-09-11T07:05:03.494Z,67.70
2018-09-11T07:07:38.547Z,67.70
2018-09-11T07:15:23.913Z,67.60
2018-09-11T07:17:59.025Z,67.60
2018-09-11T07:23:08.852Z,67.70
2018-09-11T07:28:19.152Z,67.70
2018-09-11T07:38:39.298Z,67.70
2018-09-11T07:41:14.383Z,67.80
2018-09-11T07:46:24.232Z,67.80
2018-09-11T07:51:34.051Z,67.80
2018-09-11T07:59:18.809Z,67.70
2018-09-11T08:07:04.013Z,67.70
2018-09-11T08:17:23.745Z,67.70
2018-09-11T08:19:58.896Z,67.70
2018-09-11T08:22:34.148Z,67.70
2018-09-11T08:30:18.817Z,67.80
2018-09-11T08:35:28.948Z,67.90
2018-09-11T08:43:13.509Z,67.90
2018-09-11T08:48:23.397Z,67.80
2018-09-11T08:50:58.445Z,67.80
2018-09-11T08:53:33.584Z,67.80
2018-09-11T08:56:09.116Z,67.80
2018-09-11T08:58:44.262Z,67.80
2018-09-11T09:03:54.152Z,67.90
2018-09-11T09:06:29.216Z,67.70
2018-09-11T09:09:06.952Z,67.80
2018-09-11T09:14:16.885Z,67.90
2018-09-11T09:19:27.256Z,67.80
2018-09-11T09:24:37.564Z,67.80
2018-09-11T09:29:47.722Z,67.90
2018-09-11T09:37:32.479Z,68.00
2018-09-11T09:45:16.827Z,67.90
2018-09-11T09:50:26.697Z,67.90
2018-09-11T09:53:01.758Z,68.00
2018-09-11T09:55:36.860Z,67.90
2018-09-11T09:58:11.909Z,68.00
2018-09-11T10:00:52.264Z,68.00
2018-09-11T10:03:27.309Z,67.90
2018-09-11T10:08:37.488Z,67.90
2018-09-11T10:16:22.129Z,68.00
2018-09-11T10:21:32.067Z,67.90
2018-09-11T10:24:07.163Z,67.90
2018-09-11T10:42:11.438Z,68.00
2018-09-11T10:44:46.500Z,68.10
2018-09-11T10:47:21.801Z,68.10
2018-09-11T10:55:06.909Z,68.00
2018-09-11T11:00:16.857Z,67.90
2018-09-11T11:05:27.015Z,68.00
2018-09-11T11:18:21.672Z,68.00
2018-09-11T11:23:31.768Z,68.00
2018-09-11T11:26:06.825Z,68.00
2018-09-11T11:28:41.976Z,68.00
2018-09-11T11:31:16.997Z,68.00
2018-09-11T11:36:27.298Z,67.70
2018-09-11T11:39:03.253Z,67.80
2018-09-11T11:44:13.013Z,67.80
2018-09-11T11:49:22.850Z,67.80
2018-09-11T11:51:57.910Z,67.80
2018-09-11T11:54:33.468Z,67.80
2018-09-11T11:59:43.096Z,67.70
2018-09-11T12:02:18.169Z,67.70
2018-09-11T12:04:53.269Z,67.80
2018-09-11T12:07:28.362Z,67.80
2018-09-11T12:15:12.937Z,67.70
2018-09-11T12:17:48.048Z,67.80
2018-09-11T12:20:23.429Z,67.80
2018-09-11T12:22:58.527Z,67.80
2018-09-11T12:30:43.112Z,67.80
2018-09-11T12:35:53.114Z,67.80
2018-09-11T12:38:28.161Z,67.80
2018-09-11T12:43:38.107Z,67.80
2018-09-11T12:51:22.716Z,67.80
2018-09-11T12:56:32.700Z,67.90
2018-09-11T13:01:42.562Z,67.90
2018-09-11T13:04:17.596Z,67.90
2018-09-11T13:06:52.810Z,67.80
2018-09-11T13:09:27.910Z,67.90
2018-09-11T13:19:47.731Z,67.90
2018-09-11T13:35:17.061Z,68.00
2018-09-11T13:37:52.166Z,67.80
2018-09-11T13:40:27.189Z,67.90
2018-09-11T13:45:36.996Z,67.90
2018-09-11T13:48:12.042Z,67.90
2018-09-11T13:50:47.121Z,68.00
2018-09-11T13:53:22.160Z,67.80
2018-09-11T13:58:32.011Z,67.90
2018-09-11T14:01:07.341Z,67.90
2018-09-11T14:03:42.432Z,67.90
2018-09-11T14:08:52.228Z,67.90
2018-09-11T14:14:02.503Z,68.00
2018-09-11T14:21:46.949Z,68.00
2018-09-11T14:26:56.917Z,68.00
2018-09-11T14:29:31.981Z,67.90
2018-09-11T14:42:26.602Z,67.90
2018-09-11T14:47:41.889Z,68.00
2018-09-11T14:58:01.317Z,67.90
2018-09-11T15:05:46.337Z,68.00
2018-09-11T15:08:21.531Z,68.10
2018-09-11T15:10:56.594Z,68.10
2018-09-11T15:13:31.649Z,68.10
2018-09-11T15:16:06.661Z,68.10
2018-09-11T15:21:16.510Z,68.30
2018-09-11T15:26:26.337Z,68.20
2018-09-11T15:36:45.584Z,68.30
2018-09-11T15:41:55.664Z,68.20
2018-09-11T15:47:05.481Z,68.30
2018-09-11T15:54:50.057Z,68.10
2018-09-11T16:02:34.393Z,68.10
2018-09-11T16:10:18.993Z,68.20
2018-09-11T16:23:13.643Z,68.20
2018-09-11T16:30:58.725Z,68.20
2018-09-11T16:33:33.815Z,68.20
2018-09-11T16:36:08.927Z,68.20
2018-09-11T16:41:18.853Z,68.20
2018-09-11T16:43:53.928Z,68.20
2018-09-11T16:46:28.971Z,68.10
2018-09-11T16:51:39.410Z,68.10
2018-09-11T16:54:14.480Z,68.10
2018-09-11T16:56:49.514Z,68.10
2018-09-11T17:01:59.417Z,68.10
2018-09-11T17:07:09.470Z,68.10
2018-09-11T17:20:04.346Z,68.10
2018-09-11T17:25:14.421Z,68.10
2018-09-11T17:27:49.455Z,68.10
2018-09-11T17:30:24.509Z,68.10
2018-09-11T17:32:59.570Z,68.10
2018-09-11T17:38:09.408Z,68.10
2018-09-11T17:43:19.282Z,68.10
2018-09-11T17:45:55.484Z,68.00
2018-09-11T17:48:30.592Z,68.10
2018-09-11T17:51:05.650Z,68.10
2018-09-11T17:53:40.690Z,68.20
2018-09-11T17:58:51.132Z,68.10
2018-09-11T18:01:26.522Z,68.10
2018-09-11T18:06:36.593Z,68.10
2018-09-11T18:09:11.627Z,68.20
2018-09-11T18:19:31.503Z,68.10
2018-09-11T18:24:42.157Z,68.20
2018-09-11T18:29:52.208Z,68.30
2018-09-11T18:45:21.403Z,68.30
2018-09-11T18:50:31.226Z,68.20
2018-09-11T19:08:35.284Z,68.20
2018-09-11T19:11:10.437Z,68.20
2018-09-11T19:18:54.910Z,68.20
2018-09-11T19:24:04.842Z,68.20
2018-09-11T19:29:14.769Z,68.00
2018-09-11T19:31:49.876Z,68.20
2018-09-11T19:34:25.090Z,68.20
2018-09-11T19:37:00.129Z,68.20
2018-09-11T19:39:35.462Z,68.30
2018-09-11T19:44:45.650Z,68.30
2018-09-11T19:47:20.682Z,68.30
2018-09-11T19:52:30.849Z,68.30
2018-09-11T19:57:40.988Z,68.20
2018-09-11T20:02:50.796Z,68.30
2018-09-11T20:10:35.277Z,68.20
2018-09-11T20:18:19.853Z,68.30
2018-09-11T20:33:49.459Z,68.40
2018-09-11T20:38:59.332Z,68.30
2018-09-11T20:44:10.344Z,68.40
2018-09-11T20:46:45.457Z,68.50
2018-09-11T20:51:55.620Z,68.40
2018-09-11T20:59:40.573Z,68.50
2018-09-11T21:04:50.377Z,68.40
2018-09-11T21:10:00.756Z,68.30
2018-09-11T21:15:11.138Z,68.30
2018-09-11T21:22:56.076Z,68.30
2018-09-11T21:25:31.149Z,68.20
2018-09-11T21:28:06.466Z,68.40
2018-09-11T21:30:41.476Z,68.30
2018-09-11T21:33:16.535Z,68.30
2018-09-11T21:35:52.111Z,68.50
2018-09-11T21:43:36.818Z,68.50
2018-09-11T21:46:11.872Z,68.40
2018-09-11T21:48:46.996Z,68.40
2018-09-11T21:51:22.239Z,68.30
2018-09-11T21:53:57.355Z,68.30
2018-09-11T21:56:32.470Z,68.40
2018-09-11T21:59:07.587Z,68.40
2018-09-11T22:01:48.133Z,68.30
2018-09-11T22:04:23.279Z,68.40
2018-09-11T22:12:07.733Z,68.30
2018-09-11T22:17:17.742Z,68.20
2018-09-11T22:19:52.791Z,68.30
2018-09-11T22:25:02.955Z,68.40
2018-09-11T22:37:57.213Z,68.50
2018-09-11T22:45:42.352Z,68.40
2018-09-11T22:48:17.517Z,68.50
2018-09-11T22:56:02.146Z,68.40
2018-09-11T22:58:37.196Z,68.30
2018-09-11T23:03:47.322Z,68.30
2018-09-11T23:14:07.701Z,68.40
2018-09-11T23:19:17.396Z,68.40
2018-09-11T23:21:52.440Z,68.30
2018-09-11T23:24:27.500Z,68.40
2018-09-11T23:27:02.554Z,68.40
2018-09-11T23:29:37.777Z,68.30
2018-09-11T23:32:12.853Z,68.30
2018-09-11T23:37:23.184Z,68.40
2018-09-11T23:42:33.064Z,68.40
2018-09-11T23:55:27.744Z,68.50
